sensor_id;sensor_type;location;lat;lon;timestamp;pressure;altitude;pressure_sealevel;temperature;humidity
10668;BME280;5382;42.136;24.796;2022-11-23T00:02:19;98731.31;;;12.05;100.00
10668;BME280;5382;42.136;24.796;2022-11-23T00:04:46;98734.25;;;12.02;100.00
10668;BME280;5382;42.136;24.796;2022-11-23T00:07:12;98726.19;;;12.04;100.00
10668;BME280;5382;42.136;24.796;2022-11-23T00:09:39;98723.03;;;11.90;100.00
10668;BME280;5382;42.136;24.796;2022-11-23T00:12:06;98747.63;;;11.73;100.00
10668;BME280;5382;42.136;24.796;2022-11-23T00:14:33;98741.97;;;11.58;100.00
10668;BME280;5382;42.136;24.796;2022-11-23T00:17:01;98738.50;;;11.57;100.00
10668;BME280;5382;42.136;24.796;2022-11-23T00:19:28;98730.13;;;11.62;100.00
10668;BME280;5382;42.136;24.796;2022-11-23T00:21:55;98710.78;;;11.52;100.00
10668;BME280;5382;42.136;24.796;2022-11-23T00:24:21;98729.78;;;11.75;100.00
10668;BME280;5382;42.136;24.796;2022-11-23T00:26:48;98718.00;;;11.87;100.00
10668;BME280;5382;42.136;24.796;2022-11-23T00:29:15;98715.38;;;11.87;100.00
10668;BME280;5382;42.136;24.796;2022-11-23T00:31:42;98724.69;;;11.91;100.00
10668;BME280;5382;42.136;24.796;2022-11-23T00:34:10;98726.47;;;12.00;100.00
10668;BME280;5382;42.136;24.796;2022-11-23T00:36:36;98715.19;;;11.98;100.00
10668;BME280;5382;42.136;24.796;2022-11-23T00:39:03;98702.22;;;11.95;100.00
10668;BME280;5382;42.136;24.796;2022-11-23T00:41:30;98709.06;;;11.98;100.00
10668;BME280;5382;42.136;24.796;2022-11-23T00:43:57;98710.03;;;11.97;100.00
10668;BME280;5382;42.136;24.796;2022-11-23T00:46:25;98709.38;;;11.85;100.00
10668;BME280;5382;42.136;24.796;2022-11-23T00:48:53;98703.38;;;11.83;100.00
10668;BME280;5382;42.136;24.796;2022-11-23T00:51:24;98692.09;;;11.81;100.00
10668;BME280;5382;42.136;24.796;2022-11-23T00:53:52;98694.03;;;11.89;100.00
10668;BME280;5382;42.136;24.796;2022-11-23T00:56:19;98697.66;;;11.88;100.00
10668;BME280;5382;42.136;24.796;2022-11-23T00:58:47;98648.47;;;11.75;100.00
10668;BME280;5382;42.136;24.796;2022-11-23T01:01:16;98690.94;;;11.93;100.00
10668;BME280;5382;42.136;24.796;2022-11-23T01:03:44;98670.34;;;11.77;100.00
10668;BME280;5382;42.136;24.796;2022-11-23T01:06:14;98702.81;;;11.89;100.00
10668;BME280;5382;42.136;24.796;2022-11-23T01:08:47;98687.59;;;11.91;100.00
10668;BME280;5382;42.136;24.796;2022-11-23T01:11:14;98684.81;;;11.83;100.00
10668;BME280;5382;42.136;24.796;2022-11-23T01:13:41;98669.50;;;11.77;100.00
10668;BME280;5382;42.136;24.796;2022-11-23T01:16:12;98654.94;;;11.63;100.00
10668;BME280;5382;42.136;24.796;2022-11-23T01:18:40;98655.63;;;11.65;100.00
10668;BME280;5382;42.136;24.796;2022-11-23T01:21:07;98655.38;;;11.58;100.00
10668;BME280;5382;42.136;24.796;2022-11-23T01:23:34;98652.94;;;11.47;100.00
10668;BME280;5382;42.136;24.796;2022-11-23T01:26:05;98648.16;;;11.23;100.00
10668;BME280;5382;42.136;24.796;2022-11-23T01:28:32;98626.31;;;11.11;100.00
10668;BME280;5382;42.136;24.796;2022-11-23T01:31:04;98574.84;;;10.96;100.00
10668;BME280;5382;42.136;24.796;2022-11-23T01:33:31;98561.41;;;10.80;100.00
10668;BME280;5382;42.136;24.796;2022-11-23T01:35:58;98592.44;;;10.87;100.00
10668;BME280;5382;42.136;24.796;2022-11-23T01:38:24;98528.75;;;10.52;100.00
10668;BME280;5382;42.136;24.796;2022-11-23T01:40:51;98580.75;;;10.80;100.00
10668;BME280;5382;42.136;24.796;2022-11-23T01:43:19;98590.34;;;10.81;100.00
10668;BME280;5382;42.136;24.796;2022-11-23T01:45:55;98595.91;;;10.78;100.00
10668;BME280;5382;42.136;24.796;2022-11-23T01:48:26;98584.53;;;10.68;100.00
10668;BME280;5382;42.136;24.796;2022-11-23T01:50:55;98591.91;;;10.74;100.00
10668;BME280;5382;42.136;24.796;2022-11-23T01:53:25;98595.78;;;10.80;100.00
10668;BME280;5382;42.136;24.796;2022-11-23T01:55:54;98591.44;;;10.88;100.00
10668;BME280;5382;42.136;24.796;2022-11-23T01:58:24;98578.47;;;10.95;100.00
10668;BME280;5382;42.136;24.796;2022-11-23T02:00:53;98576.66;;;10.96;100.00
10668;BME280;5382;42.136;24.796;2022-11-23T02:03:20;98608.13;;;10.99;100.00
10668;BME280;5382;42.136;24.796;2022-11-23T02:05:49;98636.38;;;11.08;100.00
10668;BME280;5382;42.136;24.796;2022-11-23T02:08:19;98629.25;;;11.18;100.00
10668;BME280;5382;42.136;24.796;2022-11-23T02:10:46;98628.78;;;11.23;100.00
10668;BME280;5382;42.136;24.796;2022-11-23T02:13:13;98620.16;;;11.21;100.00
10668;BME280;5382;42.136;24.796;2022-11-23T02:15:42;98618.59;;;11.28;100.00
10668;BME280;5382;42.136;24.796;2022-11-23T02:18:12;98608.13;;;11.36;100.00
10668;BME280;5382;42.136;24.796;2022-11-23T02:20:42;98601.81;;;11.37;100.00
10668;BME280;5382;42.136;24.796;2022-11-23T02:23:15;98607.81;;;11.39;100.00
10668;BME280;5382;42.136;24.796;2022-11-23T02:25:57;98608.22;;;11.44;100.00
10668;BME280;5382;42.136;24.796;2022-11-23T02:28:29;98624.94;;;11.45;100.00
10668;BME280;5382;42.136;24.796;2022-11-23T02:30:59;98628.69;;;11.42;100.00
10668;BME280;5382;42.136;24.796;2022-11-23T02:33:27;98616.88;;;11.37;100.00
10668;BME280;5382;42.136;24.796;2022-11-23T02:35:57;98605.69;;;11.43;100.00
10668;BME280;5382;42.136;24.796;2022-11-23T02:38:27;98593.41;;;11.51;100.00
10668;BME280;5382;42.136;24.796;2022-11-23T02:40:56;98590.16;;;11.57;100.00
10668;BME280;5382;42.136;24.796;2022-11-23T02:43:23;98609.69;;;11.56;100.00
10668;BME280;5382;42.136;24.796;2022-11-23T02:45:52;98605.56;;;11.44;100.00
10668;BME280;5382;42.136;24.796;2022-11-23T02:48:20;98602.63;;;11.10;100.00
10668;BME280;5382;42.136;24.796;2022-11-23T02:50:46;98590.09;;;11.12;100.00
10668;BME280;5382;42.136;24.796;2022-11-23T02:53:14;98597.13;;;10.94;100.00
10668;BME280;5382;42.136;24.796;2022-11-23T02:55:40;98599.28;;;10.70;100.00
10668;BME280;5382;42.136;24.796;2022-11-23T02:58:09;98598.88;;;10.56;100.00
10668;BME280;5382;42.136;24.796;2022-11-23T03:00:36;98604.94;;;10.38;100.00
10668;BME280;5382;42.136;24.796;2022-11-23T03:03:03;98607.13;;;10.23;100.00
10668;BME280;5382;42.136;24.796;2022-11-23T03:05:30;98594.31;;;10.09;100.00
10668;BME280;5382;42.136;24.796;2022-11-23T03:07:56;98602.81;;;10.13;100.00
10668;BME280;5382;42.136;24.796;2022-11-23T03:10:23;98607.81;;;10.06;100.00
10668;BME280;5382;42.136;24.796;2022-11-23T03:12:53;98614.78;;;10.07;100.00
10668;BME280;5382;42.136;24.796;2022-11-23T03:15:21;98599.03;;;9.96;100.00
10668;BME280;5382;42.136;24.796;2022-11-23T03:17:48;98613.09;;;10.06;100.00
10668;BME280;5382;42.136;24.796;2022-11-23T03:20:15;98594.75;;;10.04;100.00
10668;BME280;5382;42.136;24.796;2022-11-23T03:22:42;98588.91;;;10.01;100.00
10668;BME280;5382;42.136;24.796;2022-11-23T03:25:09;98581.09;;;10.09;100.00
10668;BME280;5382;42.136;24.796;2022-11-23T03:27:36;98580.28;;;10.18;100.00
10668;BME280;5382;42.136;24.796;2022-11-23T03:30:04;98588.06;;;10.10;100.00
10668;BME280;5382;42.136;24.796;2022-11-23T03:32:34;98576.38;;;10.22;100.00
10668;BME280;5382;42.136;24.796;2022-11-23T03:35:00;98566.47;;;10.24;100.00
10668;BME280;5382;42.136;24.796;2022-11-23T03:37:27;98574.59;;;10.33;100.00
10668;BME280;5382;42.136;24.796;2022-11-23T03:39:54;98592.53;;;10.39;100.00
10668;BME280;5382;42.136;24.796;2022-11-23T03:42:21;98578.03;;;10.23;100.00
10668;BME280;5382;42.136;24.796;2022-11-23T03:44:47;98568.31;;;10.24;100.00
10668;BME280;5382;42.136;24.796;2022-11-23T03:47:14;98580.56;;;10.15;100.00
10668;BME280;5382;42.136;24.796;2022-11-23T03:49:44;98586.09;;;10.22;100.00
10668;BME280;5382;42.136;24.796;2022-11-23T03:52:10;98589.44;;;10.14;100.00
10668;BME280;5382;42.136;24.796;2022-11-23T03:54:37;98602.81;;;10.13;100.00
10668;BME280;5382;42.136;24.796;2022-11-23T03:57:04;98600.28;;;10.01;100.00
10668;BME280;5382;42.136;24.796;2022-11-23T03:59:31;98601.97;;;9.93;100.00
10668;BME280;5382;42.136;24.796;2022-11-23T04:01:57;98599.19;;;10.04;100.00
10668;BME280;5382;42.136;24.796;2022-11-23T04:04:24;98611.44;;;10.05;100.00
10668;BME280;5382;42.136;24.796;2022-11-23T04:06:52;98620.50;;;10.12;100.00
10668;BME280;5382;42.136;24.796;2022-11-23T04:09:19;98607.69;;;10.08;100.00
10668;BME280;5382;42.136;24.796;2022-11-23T04:11:46;98622.44;;;10.10;100.00
10668;BME280;5382;42.136;24.796;2022-11-23T04:14:12;98626.88;;;10.00;100.00
10668;BME280;5382;42.136;24.796;2022-11-23T04:16:39;98619.06;;;9.98;100.00
10668;BME280;5382;42.136;24.796;2022-11-23T04:19:06;98623.53;;;9.98;100.00
10668;BME280;5382;42.136;24.796;2022-11-23T04:21:33;98611.03;;;10.00;100.00
10668;BME280;5382;42.136;24.796;2022-11-23T04:24:01;98609.34;;;9.99;100.00
10668;BME280;5382;42.136;24.796;2022-11-23T04:26:28;98593.06;;;10.03;100.00
10668;BME280;5382;42.136;24.796;2022-11-23T04:28:55;98589.72;;;10.21;100.00
10668;BME280;5382;42.136;24.796;2022-11-23T04:31:22;98587.22;;;10.19;100.00
10668;BME280;5382;42.136;24.796;2022-11-23T04:33:48;98594.34;;;10.29;100.00
10668;BME280;5382;42.136;24.796;2022-11-23T04:36:15;98585.28;;;10.21;100.00
10668;BME280;5382;42.136;24.796;2022-11-23T04:38:42;98600.03;;;10.24;100.00
10668;BME280;5382;42.136;24.796;2022-11-23T04:41:10;98607.56;;;10.29;100.00
10668;BME280;5382;42.136;24.796;2022-11-23T04:43:37;98602.13;;;10.20;100.00
10668;BME280;5382;42.136;24.796;2022-11-23T04:46:04;98607.69;;;10.17;100.00
10668;BME280;5382;42.136;24.796;2022-11-23T04:48:30;98608.09;;;10.13;100.00
10668;BME280;5382;42.136;24.796;2022-11-23T04:50:57;98608.38;;;10.10;100.00
10668;BME280;5382;42.136;24.796;2022-11-23T04:53:24;98614.91;;;10.15;100.00
10668;BME280;5382;42.136;24.796;2022-11-23T04:55:51;98603.78;;;10.12;100.00
10668;BME280;5382;42.136;24.796;2022-11-23T04:58:19;98620.50;;;10.12;100.00
10668;BME280;5382;42.136;24.796;2022-11-23T05:00:45;98608.81;;;10.15;100.00
10668;BME280;5382;42.136;24.796;2022-11-23T05:03:12;98615.03;;;10.14;100.00
10668;BME280;5382;42.136;24.796;2022-11-23T05:05:40;98606.28;;;10.13;100.00
10668;BME280;5382;42.136;24.796;2022-11-23T05:08:07;98614.50;;;10.20;100.00
10668;BME280;5382;42.136;24.796;2022-11-23T05:10:35;98577.09;;;10.05;100.00
10668;BME280;5382;42.136;24.796;2022-11-23T05:13:02;98596.00;;;10.20;100.00
10668;BME280;5382;42.136;24.796;2022-11-23T05:15:30;98594.91;;;10.22;100.00
10668;BME280;5382;42.136;24.796;2022-11-23T05:18:00;98591.97;;;10.16;100.00
10668;BME280;5382;42.136;24.796;2022-11-23T05:20:27;98586.97;;;10.32;100.00
10668;BME280;5382;42.136;24.796;2022-11-23T05:22:54;98589.47;;;10.34;100.00
10668;BME280;5382;42.136;24.796;2022-11-23T05:25:21;98587.81;;;10.33;100.00
10668;BME280;5382;42.136;24.796;2022-11-23T05:27:48;98593.53;;;10.38;100.00
10668;BME280;5382;42.136;24.796;2022-11-23T05:30:14;98603.09;;;10.39;100.00
10668;BME280;5382;42.136;24.796;2022-11-23T05:32:43;98610.63;;;10.43;100.00
10668;BME280;5382;42.136;24.796;2022-11-23T05:35:10;98607.81;;;10.55;100.00
10668;BME280;5382;42.136;24.796;2022-11-23T05:37:37;98616.44;;;10.57;100.00
10668;BME280;5382;42.136;24.796;2022-11-23T05:40:05;98613.63;;;10.58;100.00
10668;BME280;5382;42.136;24.796;2022-11-23T05:42:32;98612.69;;;10.59;100.00
10668;BME280;5382;42.136;24.796;2022-11-23T05:44:58;98597.09;;;10.56;100.00
10668;BME280;5382;42.136;24.796;2022-11-23T05:47:25;98583.19;;;10.54;100.00
10668;BME280;5382;42.136;24.796;2022-11-23T05:49:53;98593.47;;;10.67;100.00
10668;BME280;5382;42.136;24.796;2022-11-23T05:52:20;98601.09;;;10.70;100.00
10668;BME280;5382;42.136;24.796;2022-11-23T05:54:47;98622.25;;;10.80;100.00
10668;BME280;5382;42.136;24.796;2022-11-23T05:57:14;98623.22;;;10.79;100.00
10668;BME280;5382;42.136;24.796;2022-11-23T05:59:42;98607.06;;;10.82;100.00
10668;BME280;5382;42.136;24.796;2022-11-23T06:02:08;98595.91;;;10.88;100.00
10668;BME280;5382;42.136;24.796;2022-11-23T06:04:35;98624.09;;;11.07;100.00
10668;BME280;5382;42.136;24.796;2022-11-23T06:07:03;98587.59;;;11.10;100.00
10668;BME280;5382;42.136;24.796;2022-11-23T06:09:30;98604.31;;;11.11;100.00
10668;BME280;5382;42.136;24.796;2022-11-23T06:11:57;98592.59;;;11.13;100.00
10668;BME280;5382;42.136;24.796;2022-11-23T06:14:24;98597.72;;;11.15;100.00
10668;BME280;5382;42.136;24.796;2022-11-23T06:16:50;98589.78;;;11.15;100.00
10668;BME280;5382;42.136;24.796;2022-11-23T06:19:17;98579.38;;;11.13;100.00
10668;BME280;5382;42.136;24.796;2022-11-23T06:21:44;98594.81;;;11.18;100.00
10668;BME280;5382;42.136;24.796;2022-11-23T06:24:12;98603.44;;;11.20;100.00
10668;BME280;5382;42.136;24.796;2022-11-23T06:26:39;98601.91;;;11.18;100.00
10668;BME280;5382;42.136;24.796;2022-11-23T06:29:06;98606.38;;;11.17;100.00
10668;BME280;5382;42.136;24.796;2022-11-23T06:31:33;98611.63;;;11.27;100.00
10668;BME280;5382;42.136;24.796;2022-11-23T06:34:00;98612.63;;;11.26;100.00
10668;BME280;5382;42.136;24.796;2022-11-23T06:36:27;98610.63;;;11.28;100.00
10668;BME280;5382;42.136;24.796;2022-11-23T06:38:54;98618.72;;;11.36;100.00
10668;BME280;5382;42.136;24.796;2022-11-23T06:41:23;98631.47;;;11.41;100.00
10668;BME280;5382;42.136;24.796;2022-11-23T06:43:50;98629.00;;;11.39;100.00
10668;BME280;5382;42.136;24.796;2022-11-23T06:46:17;98598.59;;;11.16;100.00
10668;BME280;5382;42.136;24.796;2022-11-23T06:48:45;98634.47;;;11.28;100.00
10668;BME280;5382;42.136;24.796;2022-11-23T06:51:13;98621.53;;;11.25;100.00
10668;BME280;5382;42.136;24.796;2022-11-23T06:53:40;98633.50;;;11.29;100.00
10668;BME280;5382;42.136;24.796;2022-11-23T06:56:07;98631.00;;;11.27;100.00
10668;BME280;5382;42.136;24.796;2022-11-23T06:58:36;98640.72;;;11.37;100.00
10668;BME280;5382;42.136;24.796;2022-11-23T07:01:05;98630.25;;;11.35;100.00
10668;BME280;5382;42.136;24.796;2022-11-23T07:03:32;98628.09;;;11.48;100.00
10668;BME280;5382;42.136;24.796;2022-11-23T07:06:03;98626.25;;;11.58;100.00
10668;BME280;5382;42.136;24.796;2022-11-23T07:08:30;98637.63;;;11.69;100.00
10668;BME280;5382;42.136;24.796;2022-11-23T07:10:59;98619.38;;;11.66;100.00
10668;BME280;5382;42.136;24.796;2022-11-23T07:13:27;98640.19;;;11.88;100.00
10668;BME280;5382;42.136;24.796;2022-11-23T07:15:56;98639.56;;;11.94;100.00
10668;BME280;5382;42.136;24.796;2022-11-23T07:18:23;98647.84;;;12.09;100.00
10668;BME280;5382;42.136;24.796;2022-11-23T07:20:50;98638.69;;;12.21;100.00
10668;BME280;5382;42.136;24.796;2022-11-23T07:23:17;98652.78;;;12.22;100.00
10668;BME280;5382;42.136;24.796;2022-11-23T07:25:43;98644.75;;;12.14;100.00
10668;BME280;5382;42.136;24.796;2022-11-23T07:28:11;98603.59;;;11.92;100.00
10668;BME280;5382;42.136;24.796;2022-11-23T07:30:38;98641.66;;;12.18;100.00
10668;BME280;5382;42.136;24.796;2022-11-23T07:33:08;98652.78;;;12.22;100.00
10668;BME280;5382;42.136;24.796;2022-11-23T07:35:36;98659.81;;;12.31;100.00
10668;BME280;5382;42.136;24.796;2022-11-23T07:38:03;98688.22;;;12.39;100.00
10668;BME280;5382;42.136;24.796;2022-11-23T07:40:32;98640.41;;;12.13;100.00
10668;BME280;5382;42.136;24.796;2022-11-23T07:43:01;98678.69;;;12.28;100.00
10668;BME280;5382;42.136;24.796;2022-11-23T07:45:29;98671.34;;;12.22;100.00
10668;BME280;5382;42.136;24.796;2022-11-23T07:47:59;98670.44;;;12.13;100.00
10668;BME280;5382;42.136;24.796;2022-11-23T07:50:28;98601.66;;;11.66;100.00
10668;BME280;5382;42.136;24.796;2022-11-23T07:52:55;98676.97;;;12.19;100.00
10668;BME280;5382;42.136;24.796;2022-11-23T07:55:22;98653.53;;;12.14;100.00
10668;BME280;5382;42.136;24.796;2022-11-23T07:57:51;98670.97;;;12.35;100.00
10668;BME280;5382;42.136;24.796;2022-11-23T08:00:18;98674.97;;;12.39;100.00
10668;BME280;5382;42.136;24.796;2022-11-23T08:02:45;98650.50;;;12.27;100.00
10668;BME280;5382;42.136;24.796;2022-11-23T08:05:13;98678.00;;;12.62;100.00
10668;BME280;5382;42.136;24.796;2022-11-23T08:07:41;98681.38;;;12.72;100.00
10668;BME280;5382;42.136;24.796;2022-11-23T08:10:09;98685.84;;;12.90;100.00
10668;BME280;5382;42.136;24.796;2022-11-23T08:12:37;98681.91;;;12.94;100.00
10668;BME280;5382;42.136;24.796;2022-11-23T08:15:04;98683.50;;;12.86;100.00
10668;BME280;5382;42.136;24.796;2022-11-23T08:17:31;98691.00;;;12.91;100.00
10668;BME280;5382;42.136;24.796;2022-11-23T08:19:58;98674.84;;;12.84;100.00
10668;BME280;5382;42.136;24.796;2022-11-23T08:22:25;98685.47;;;12.84;100.00
10668;BME280;5382;42.136;24.796;2022-11-23T08:24:53;98675.19;;;12.63;100.00
10668;BME280;5382;42.136;24.796;2022-11-23T08:27:20;98681.69;;;12.69;100.00
10668;BME280;5382;42.136;24.796;2022-11-23T08:29:47;98681.09;;;12.75;100.00
10668;BME280;5382;42.136;24.796;2022-11-23T08:32:13;98693.75;;;12.81;100.00
10668;BME280;5382;42.136;24.796;2022-11-23T08:34:41;98690.09;;;12.82;100.00
10668;BME280;5382;42.136;24.796;2022-11-23T08:37:08;98696.47;;;12.90;100.00
10668;BME280;5382;42.136;24.796;2022-11-23T08:39:35;98683.94;;;13.00;100.00
10668;BME280;5382;42.136;24.796;2022-11-23T08:42:03;98672.16;;;13.02;100.00
10668;BME280;5382;42.136;24.796;2022-11-23T08:44:30;98669.19;;;13.05;100.00
10668;BME280;5382;42.136;24.796;2022-11-23T08:46:57;98666.44;;;13.15;100.00
10668;BME280;5382;42.136;24.796;2022-11-23T08:49:23;98664.78;;;13.14;100.00
10668;BME280;5382;42.136;24.796;2022-11-23T08:51:50;98662.59;;;13.36;100.00
10668;BME280;5382;42.136;24.796;2022-11-23T08:54:17;98656.25;;;13.28;100.00
10668;BME280;5382;42.136;24.796;2022-11-23T08:56:44;98658.28;;;13.35;100.00
10668;BME280;5382;42.136;24.796;2022-11-23T08:59:12;98668.44;;;13.47;100.00
10668;BME280;5382;42.136;24.796;2022-11-23T09:01:38;98675.03;;;13.35;100.00
10668;BME280;5382;42.136;24.796;2022-11-23T09:04:05;98663.59;;;13.35;100.00
10668;BME280;5382;42.136;24.796;2022-11-23T09:06:32;98670.28;;;13.47;100.00
10668;BME280;5382;42.136;24.796;2022-11-23T09:08:59;98665.13;;;13.45;100.00
10668;BME280;5382;42.136;24.796;2022-11-23T09:11:26;98632.72;;;13.42;100.00
10668;BME280;5382;42.136;24.796;2022-11-23T09:13:53;98647.97;;;13.74;100.00
10668;BME280;5382;42.136;24.796;2022-11-23T09:16:21;98647.78;;;13.67;100.00
10668;BME280;5382;42.136;24.796;2022-11-23T09:18:48;98643.09;;;13.61;100.00
10668;BME280;5382;42.136;24.796;2022-11-23T09:21:14;98639.81;;;13.75;100.00
10668;BME280;5382;42.136;24.796;2022-11-23T09:23:41;98637.34;;;13.74;100.00
10668;BME280;5382;42.136;24.796;2022-11-23T09:26:08;98642.69;;;13.99;100.00
10668;BME280;5382;42.136;24.796;2022-11-23T09:28:35;98635.41;;;14.01;100.00
10668;BME280;5382;42.136;24.796;2022-11-23T09:31:03;98637.25;;;14.16;100.00
10668;BME280;5382;42.136;24.796;2022-11-23T09:33:31;98622.63;;;14.29;100.00
10668;BME280;5382;42.136;24.796;2022-11-23T09:35:59;98616.50;;;14.20;100.00
10668;BME280;5382;42.136;24.796;2022-11-23T09:38:26;98616.31;;;14.22;100.00
10668;BME280;5382;42.136;24.796;2022-11-23T09:41:02;98612.66;;;14.39;100.00
10668;BME280;5382;42.136;24.796;2022-11-23T09:43:46;98602.03;;;14.64;100.00
10668;BME280;5382;42.136;24.796;2022-11-23T09:46:22;98565.44;;;14.57;100.00
10668;BME280;5382;42.136;24.796;2022-11-23T09:49:13;98603.91;;;15.19;100.00
10668;BME280;5382;42.136;24.796;2022-11-23T09:51:42;98573.94;;;15.17;100.00
10668;BME280;5382;42.136;24.796;2022-11-23T09:54:20;98587.19;;;15.33;100.00
10668;BME280;5382;42.136;24.796;2022-11-23T09:56:48;98606.59;;;15.19;100.00
10668;BME280;5382;42.136;24.796;2022-11-23T09:59:26;98611.25;;;15.17;100.00
10668;BME280;5382;42.136;24.796;2022-11-23T10:01:58;98598.19;;;15.30;100.00
10668;BME280;5382;42.136;24.796;2022-11-23T10:04:33;98571.25;;;15.25;100.00
10668;BME280;5382;42.136;24.796;2022-11-23T10:07:08;98599.91;;;15.15;100.00
10668;BME280;5382;42.136;24.796;2022-11-23T10:09:46;98586.72;;;15.30;100.00
10668;BME280;5382;42.136;24.796;2022-11-23T10:12:36;98578.03;;;15.36;100.00
10668;BME280;5382;42.136;24.796;2022-11-23T10:15:10;98581.63;;;15.51;100.00
10668;BME280;5382;42.136;24.796;2022-11-23T10:18:13;98572.53;;;15.37;100.00
10668;BME280;5382;42.136;24.796;2022-11-23T10:20:54;98571.97;;;15.11;100.00
10668;BME280;5382;42.136;24.796;2022-11-23T10:23:38;98580.91;;;15.18;100.00
10668;BME280;5382;42.136;24.796;2022-11-23T10:26:08;98581.38;;;15.30;100.00
10668;BME280;5382;42.136;24.796;2022-11-23T10:28:36;98571.19;;;15.33;100.00
10668;BME280;5382;42.136;24.796;2022-11-23T10:31:09;98575.00;;;15.47;100.00
10668;BME280;5382;42.136;24.796;2022-11-23T10:33:45;98568.53;;;15.41;100.00
10668;BME280;5382;42.136;24.796;2022-11-23T10:36:16;98572.22;;;15.32;100.00
10668;BME280;5382;42.136;24.796;2022-11-23T10:38:46;98575.66;;;15.41;100.00
10668;BME280;5382;42.136;24.796;2022-11-23T10:41:15;98576.91;;;15.61;100.00
10668;BME280;5382;42.136;24.796;2022-11-23T10:43:45;98587.63;;;15.84;100.00
10668;BME280;5382;42.136;24.796;2022-11-23T10:46:28;98582.91;;;16.18;100.00
10668;BME280;5382;42.136;24.796;2022-11-23T10:49:09;98572.44;;;16.69;100.00
10668;BME280;5382;42.136;24.796;2022-11-23T10:51:37;98581.50;;;17.42;100.00
10668;BME280;5382;42.136;24.796;2022-11-23T10:54:15;98573.81;;;18.76;100.00
10668;BME280;5382;42.136;24.796;2022-11-23T10:56:45;98574.25;;;19.56;100.00
10668;BME280;5382;42.136;24.796;2022-11-23T10:59:28;98559.47;;;19.25;100.00
10668;BME280;5382;42.136;24.796;2022-11-23T11:02:00;98548.00;;;19.51;100.00
10668;BME280;5382;42.136;24.796;2022-11-23T11:04:28;98564.47;;;19.83;100.00
10668;BME280;5382;42.136;24.796;2022-11-23T11:07:25;98565.28;;;19.83;100.00
10668;BME280;5382;42.136;24.796;2022-11-23T11:09:54;98570.06;;;19.95;100.00
10668;BME280;5382;42.136;24.796;2022-11-23T11:12:22;98563.00;;;19.32;100.00
10668;BME280;5382;42.136;24.796;2022-11-23T11:15:00;98571.44;;;18.38;100.00
10668;BME280;5382;42.136;24.796;2022-11-23T11:17:30;98564.88;;;18.19;100.00
10668;BME280;5382;42.136;24.796;2022-11-23T11:19:57;98553.22;;;17.84;100.00
10668;BME280;5382;42.136;24.796;2022-11-23T11:22:31;98559.66;;;17.53;100.00
10668;BME280;5382;42.136;24.796;2022-11-23T11:25:00;98561.25;;;17.33;100.00
10668;BME280;5382;42.136;24.796;2022-11-23T11:27:28;98539.31;;;16.93;100.00
10668;BME280;5382;42.136;24.796;2022-11-23T11:29:57;98562.00;;;16.82;100.00
10668;BME280;5382;42.136;24.796;2022-11-23T11:32:33;98551.06;;;16.54;100.00
10668;BME280;5382;42.136;24.796;2022-11-23T11:35:10;98552.50;;;16.42;100.00
10668;BME280;5382;42.136;24.796;2022-11-23T11:37:42;98546.84;;;16.22;100.00
10668;BME280;5382;42.136;24.796;2022-11-23T11:40:18;98542.25;;;16.30;100.00
10668;BME280;5382;42.136;24.796;2022-11-23T11:42:49;98502.84;;;16.18;100.00
10668;BME280;5382;42.136;24.796;2022-11-23T11:45:23;98526.84;;;16.55;100.00
10668;BME280;5382;42.136;24.796;2022-11-23T11:47:55;98540.41;;;16.69;100.00
10668;BME280;5382;42.136;24.796;2022-11-23T11:50:25;98535.09;;;16.84;100.00
10668;BME280;5382;42.136;24.796;2022-11-23T11:53:00;98526.78;;;17.08;100.00
10668;BME280;5382;42.136;24.796;2022-11-23T11:55:43;98524.91;;;17.38;100.00
10668;BME280;5382;42.136;24.796;2022-11-23T11:58:14;98542.69;;;18.04;100.00
10668;BME280;5382;42.136;24.796;2022-11-23T12:00:42;98542.84;;;18.73;100.00
10668;BME280;5382;42.136;24.796;2022-11-23T12:03:18;98556.81;;;19.32;100.00
10668;BME280;5382;42.136;24.796;2022-11-23T12:05:52;98559.69;;;19.85;100.00
10668;BME280;5382;42.136;24.796;2022-11-23T12:08:25;98566.63;;;20.61;100.00
10668;BME280;5382;42.136;24.796;2022-11-23T12:10:57;98564.03;;;21.77;96.93
10668;BME280;5382;42.136;24.796;2022-11-23T12:13:28;98553.22;;;22.48;91.28
10668;BME280;5382;42.136;24.796;2022-11-23T12:16:04;98548.81;;;22.53;88.14
10668;BME280;5382;42.136;24.796;2022-11-23T12:21:53;98540.88;;;22.58;86.94
10668;BME280;5382;42.136;24.796;2022-11-23T12:24:37;98528.13;;;22.47;87.00
10668;BME280;5382;42.136;24.796;2022-11-23T12:27:14;98531.28;;;22.69;85.19
10668;BME280;5382;42.136;24.796;2022-11-23T12:30:03;98545.19;;;22.09;86.26
10668;BME280;5382;42.136;24.796;2022-11-23T12:32:48;98548.44;;;21.86;86.31
10668;BME280;5382;42.136;24.796;2022-11-23T12:38:27;98557.38;;;21.28;91.09
10668;BME280;5382;42.136;24.796;2022-11-23T12:41:28;98555.69;;;21.47;90.26
10668;BME280;5382;42.136;24.796;2022-11-23T12:46:53;98554.03;;;21.46;89.06
10668;BME280;5382;42.136;24.796;2022-11-23T12:49:32;98563.50;;;21.62;88.59
10668;BME280;5382;42.136;24.796;2022-11-23T12:52:31;98554.16;;;21.65;89.60
10668;BME280;5382;42.136;24.796;2022-11-23T12:55:13;98542.66;;;21.89;86.57
10668;BME280;5382;42.136;24.796;2022-11-23T12:57:48;98554.53;;;22.07;86.22
10668;BME280;5382;42.136;24.796;2022-11-23T13:00:19;98558.47;;;22.04;84.24
10668;BME280;5382;42.136;24.796;2022-11-23T13:09:13;98560.19;;;22.30;82.71
10668;BME280;5382;42.136;24.796;2022-11-23T13:11:57;98561.28;;;21.46;86.44
10668;BME280;5382;42.136;24.796;2022-11-23T13:14:36;98559.44;;;21.33;86.00
10668;BME280;5382;42.136;24.796;2022-11-23T13:17:15;98568.16;;;21.22;87.13
10668;BME280;5382;42.136;24.796;2022-11-23T13:19:56;98566.81;;;20.79;89.05